sensor_id;sensor_type;location;lat;lon;timestamp;temperature;humidity
36990;DHT22;22898;52.102;5.776;2024-02-21T00:00:40;14.10;99.90
36990;DHT22;22898;52.102;5.776;2024-02-21T00:03:07;14.10;99.90
36990;DHT22;22898;52.102;5.776;2024-02-21T00:05:32;14.20;99.90
36990;DHT22;22898;52.102;5.776;2024-02-21T00:08:02;14.00;99.90
36990;DHT22;22898;52.102;5.776;2024-02-21T00:10:28;13.90;99.90
36990;DHT22;22898;52.102;5.776;2024-02-21T00:12:54;14.10;99.90
36990;DHT22;22898;52.102;5.776;2024-02-21T00:15:20;14.10;99.90
36990;DHT22;22898;52.102;5.776;2024-02-21T00:17:46;14.20;99.90
36990;DHT22;22898;52.102;5.776;2024-02-21T00:20:12;14.40;99.90
36990;DHT22;22898;52.102;5.776;2024-02-21T00:22:38;14.10;99.90
36990;DHT22;22898;52.102;5.776;2024-02-21T00:25:03;14.40;99.90
36990;DHT22;22898;52.102;5.776;2024-02-21T00:27:29;13.90;99.90
36990;DHT22;22898;52.102;5.776;2024-02-21T00:29:55;13.90;99.90
36990;DHT22;22898;52.102;5.776;2024-02-21T00:32:20;14.10;99.90
36990;DHT22;22898;52.102;5.776;2024-02-21T00:34:46;14.30;99.90
36990;DHT22;22898;52.102;5.776;2024-02-21T00:37:12;14.70;99.90
36990;DHT22;22898;52.102;5.776;2024-02-21T00:39:37;14.40;99.90
36990;DHT22;22898;52.102;5.776;2024-02-21T00:42:03;14.50;99.90
36990;DHT22;22898;52.102;5.776;2024-02-21T00:44:29;14.90;99.90
36990;DHT22;22898;52.102;5.776;2024-02-21T00:46:54;15.10;99.90
36990;DHT22;22898;52.102;5.776;2024-02-21T00:49:20;14.80;99.90
36990;DHT22;22898;52.102;5.776;2024-02-21T00:51:46;14.40;99.90
36990;DHT22;22898;52.102;5.776;2024-02-21T00:54:12;13.90;99.90
36990;DHT22;22898;52.102;5.776;2024-02-21T00:56:38;14.10;99.90
36990;DHT22;22898;52.102;5.776;2024-02-21T00:59:03;14.10;99.90
36990;DHT22;22898;52.102;5.776;2024-02-21T01:01:29;14.20;99.90
36990;DHT22;22898;52.102;5.776;2024-02-21T01:03:54;13.90;99.90
36990;DHT22;22898;52.102;5.776;2024-02-21T01:06:20;14.30;99.90
36990;DHT22;22898;52.102;5.776;2024-02-21T01:08:49;14.70;99.90
36990;DHT22;22898;52.102;5.776;2024-02-21T01:11:16;14.20;99.90
36990;DHT22;22898;52.102;5.776;2024-02-21T01:13:42;13.80;99.90
36990;DHT22;22898;52.102;5.776;2024-02-21T01:16:07;13.70;99.90
36990;DHT22;22898;52.102;5.776;2024-02-21T01:18:34;13.60;99.90
36990;DHT22;22898;52.102;5.776;2024-02-21T01:20:59;13.50;99.90
36990;DHT22;22898;52.102;5.776;2024-02-21T01:23:25;13.80;99.90
36990;DHT22;22898;52.102;5.776;2024-02-21T01:25:51;13.40;99.90
36990;DHT22;22898;52.102;5.776;2024-02-21T01:28:17;13.10;99.90
36990;DHT22;22898;52.102;5.776;2024-02-21T01:30:43;13.20;99.90
36990;DHT22;22898;52.102;5.776;2024-02-21T01:33:09;13.40;99.90
36990;DHT22;22898;52.102;5.776;2024-02-21T01:35:35;13.30;99.90
36990;DHT22;22898;52.102;5.776;2024-02-21T01:38:01;13.10;99.90
36990;DHT22;22898;52.102;5.776;2024-02-21T01:40:26;13.40;99.90
36990;DHT22;22898;52.102;5.776;2024-02-21T01:42:55;13.40;99.90
36990;DHT22;22898;52.102;5.776;2024-02-21T01:45:20;13.30;99.90
36990;DHT22;22898;52.102;5.776;2024-02-21T01:47:46;13.20;99.90
36990;DHT22;22898;52.102;5.776;2024-02-21T01:50:13;13.20;99.90
36990;DHT22;22898;52.102;5.776;2024-02-21T01:52:40;13.10;99.90
36990;DHT22;22898;52.102;5.776;2024-02-21T01:55:06;13.20;99.90
36990;DHT22;22898;52.102;5.776;2024-02-21T01:57:32;13.70;99.90
36990;DHT22;22898;52.102;5.776;2024-02-21T01:59:58;13.50;99.90
36990;DHT22;22898;52.102;5.776;2024-02-21T02:02:24;13.60;99.90
36990;DHT22;22898;52.102;5.776;2024-02-21T02:04:50;13.50;99.90
36990;DHT22;22898;52.102;5.776;2024-02-21T02:07:17;13.70;99.90
36990;DHT22;22898;52.102;5.776;2024-02-21T02:09:43;13.20;99.90
36990;DHT22;22898;52.102;5.776;2024-02-21T02:12:08;13.30;99.90
36990;DHT22;22898;52.102;5.776;2024-02-21T02:14:34;13.50;99.90
36990;DHT22;22898;52.102;5.776;2024-02-21T02:17:00;13.70;99.90
36990;DHT22;22898;52.102;5.776;2024-02-21T02:19:25;13.90;99.90
36990;DHT22;22898;52.102;5.776;2024-02-21T02:21:54;14.40;99.90
36990;DHT22;22898;52.102;5.776;2024-02-21T02:24:24;14.60;99.90
36990;DHT22;22898;52.102;5.776;2024-02-21T02:26:51;13.90;99.90
36990;DHT22;22898;52.102;5.776;2024-02-21T02:29:17;13.30;99.90
36990;DHT22;22898;52.102;5.776;2024-02-21T02:31:42;13.30;99.90
36990;DHT22;22898;52.102;5.776;2024-02-21T02:34:08;13.10;99.90
36990;DHT22;22898;52.102;5.776;2024-02-21T02:36:35;12.90;99.90
36990;DHT22;22898;52.102;5.776;2024-02-21T02:39:01;13.00;99.90
36990;DHT22;22898;52.102;5.776;2024-02-21T02:41:27;12.80;99.90
36990;DHT22;22898;52.102;5.776;2024-02-21T02:43:52;12.80;99.90
36990;DHT22;22898;52.102;5.776;2024-02-21T02:46:18;12.70;99.90
36990;DHT22;22898;52.102;5.776;2024-02-21T02:48:43;12.50;99.90
36990;DHT22;22898;52.102;5.776;2024-02-21T02:51:10;12.30;99.90
36990;DHT22;22898;52.102;5.776;2024-02-21T02:53:36;12.60;99.90
36990;DHT22;22898;52.102;5.776;2024-02-21T02:56:01;12.40;99.90
36990;DHT22;22898;52.102;5.776;2024-02-21T02:58:28;12.70;99.90
36990;DHT22;22898;52.102;5.776;2024-02-21T03:00:54;12.40;99.90
36990;DHT22;22898;52.102;5.776;2024-02-21T03:03:19;12.20;99.90
36990;DHT22;22898;52.102;5.776;2024-02-21T03:05:45;12.50;99.90
36990;DHT22;22898;52.102;5.776;2024-02-21T03:08:11;12.60;99.90
36990;DHT22;22898;52.102;5.776;2024-02-21T03:10:37;13.00;99.90
36990;DHT22;22898;52.102;5.776;2024-02-21T03:13:03;13.10;99.90
36990;DHT22;22898;52.102;5.776;2024-02-21T03:15:29;13.00;99.90
36990;DHT22;22898;52.102;5.776;2024-02-21T03:17:54;13.00;99.90
36990;DHT22;22898;52.102;5.776;2024-02-21T03:20:20;13.20;99.90
36990;DHT22;22898;52.102;5.776;2024-02-21T03:22:46;13.50;99.90
36990;DHT22;22898;52.102;5.776;2024-02-21T03:25:11;13.30;99.90
36990;DHT22;22898;52.102;5.776;2024-02-21T03:27:39;13.60;99.90
36990;DHT22;22898;52.102;5.776;2024-02-21T03:30:05;13.80;99.90
36990;DHT22;22898;52.102;5.776;2024-02-21T03:32:31;13.60;99.90
36990;DHT22;22898;52.102;5.776;2024-02-21T03:34:56;13.70;99.90
36990;DHT22;22898;52.102;5.776;2024-02-21T03:37:22;13.90;99.90
36990;DHT22;22898;52.102;5.776;2024-02-21T03:39:47;14.40;99.90
36990;DHT22;22898;52.102;5.776;2024-02-21T03:42:13;14.60;99.90
36990;DHT22;22898;52.102;5.776;2024-02-21T03:44:39;14.80;99.90
36990;DHT22;22898;52.102;5.776;2024-02-21T03:47:04;15.10;99.90
36990;DHT22;22898;52.102;5.776;2024-02-21T03:49:30;15.30;99.90
36990;DHT22;22898;52.102;5.776;2024-02-21T03:51:56;15.20;99.90
36990;DHT22;22898;52.102;5.776;2024-02-21T03:54:22;14.50;99.90
36990;DHT22;22898;52.102;5.776;2024-02-21T03:56:47;14.80;99.90
36990;DHT22;22898;52.102;5.776;2024-02-21T03:59:14;15.00;99.90
36990;DHT22;22898;52.102;5.776;2024-02-21T04:01:40;14.70;99.90
36990;DHT22;22898;52.102;5.776;2024-02-21T04:04:05;14.80;99.90
36990;DHT22;22898;52.102;5.776;2024-02-21T04:06:32;15.30;99.90
36990;DHT22;22898;52.102;5.776;2024-02-21T04:08:57;15.10;99.90
36990;DHT22;22898;52.102;5.776;2024-02-21T04:11:23;15.00;99.90
36990;DHT22;22898;52.102;5.776;2024-02-21T04:13:48;14.90;99.90
36990;DHT22;22898;52.102;5.776;2024-02-21T04:16:16;14.80;99.90
36990;DHT22;22898;52.102;5.776;2024-02-21T04:18:42;13.80;99.90
36990;DHT22;22898;52.102;5.776;2024-02-21T04:21:09;13.60;99.90
36990;DHT22;22898;52.102;5.776;2024-02-21T04:23:34;14.00;99.90
36990;DHT22;22898;52.102;5.776;2024-02-21T04:26:00;14.20;99.90
36990;DHT22;22898;52.102;5.776;2024-02-21T04:28:25;14.10;99.90
36990;DHT22;22898;52.102;5.776;2024-02-21T04:30:51;14.10;99.90
36990;DHT22;22898;52.102;5.776;2024-02-21T04:33:16;14.30;99.90
36990;DHT22;22898;52.102;5.776;2024-02-21T04:35:42;14.20;99.90
36990;DHT22;22898;52.102;5.776;2024-02-21T04:38:08;14.50;99.90
36990;DHT22;22898;52.102;5.776;2024-02-21T04:40:33;14.90;99.90
36990;DHT22;22898;52.102;5.776;2024-02-21T04:42:59;15.10;99.90
36990;DHT22;22898;52.102;5.776;2024-02-21T04:45:25;15.40;99.90
36990;DHT22;22898;52.102;5.776;2024-02-21T04:47:50;15.90;99.90
36990;DHT22;22898;52.102;5.776;2024-02-21T04:50:16;16.00;99.90
36990;DHT22;22898;52.102;5.776;2024-02-21T04:52:42;15.90;99.90
36990;DHT22;22898;52.102;5.776;2024-02-21T04:55:08;15.90;99.90
36990;DHT22;22898;52.102;5.776;2024-02-21T04:57:33;16.00;99.90
36990;DHT22;22898;52.102;5.776;2024-02-21T04:59:59;16.30;99.90
36990;DHT22;22898;52.102;5.776;2024-02-21T05:02:25;16.40;99.90
36990;DHT22;22898;52.102;5.776;2024-02-21T05:04:52;16.30;99.90
36990;DHT22;22898;52.102;5.776;2024-02-21T05:07:18;16.40;99.90
36990;DHT22;22898;52.102;5.776;2024-02-21T05:09:47;16.50;99.90
36990;DHT22;22898;52.102;5.776;2024-02-21T05:12:14;16.40;99.90
36990;DHT22;22898;52.102;5.776;2024-02-21T05:14:39;15.80;99.90
36990;DHT22;22898;52.102;5.776;2024-02-21T05:17:05;15.50;99.90
36990;DHT22;22898;52.102;5.776;2024-02-21T05:19:31;15.80;99.90
36990;DHT22;22898;52.102;5.776;2024-02-21T05:21:58;15.70;99.90
36990;DHT22;22898;52.102;5.776;2024-02-21T05:24:24;16.00;99.90
36990;DHT22;22898;52.102;5.776;2024-02-21T05:26:50;16.00;99.90
36990;DHT22;22898;52.102;5.776;2024-02-21T05:29:16;16.20;99.90
36990;DHT22;22898;52.102;5.776;2024-02-21T05:34:17;15.80;99.90
36990;DHT22;22898;52.102;5.776;2024-02-21T05:36:43;15.60;99.90
36990;DHT22;22898;52.102;5.776;2024-02-21T05:39:09;15.80;99.90
36990;DHT22;22898;52.102;5.776;2024-02-21T05:41:34;15.80;99.90
36990;DHT22;22898;52.102;5.776;2024-02-21T05:44:00;15.80;99.90
36990;DHT22;22898;52.102;5.776;2024-02-21T05:46:26;15.90;99.90
36990;DHT22;22898;52.102;5.776;2024-02-21T05:48:51;16.00;99.90
36990;DHT22;22898;52.102;5.776;2024-02-21T05:51:17;16.00;99.90
36990;DHT22;22898;52.102;5.776;2024-02-21T05:53:42;16.30;99.90
36990;DHT22;22898;52.102;5.776;2024-02-21T05:56:12;16.10;99.90
36990;DHT22;22898;52.102;5.776;2024-02-21T05:58:38;15.90;99.90
36990;DHT22;22898;52.102;5.776;2024-02-21T06:01:04;15.90;99.90
36990;DHT22;22898;52.102;5.776;2024-02-21T06:03:30;16.20;99.90
36990;DHT22;22898;52.102;5.776;2024-02-21T06:05:56;16.30;99.90
36990;DHT22;22898;52.102;5.776;2024-02-21T06:08:21;16.50;99.90
36990;DHT22;22898;52.102;5.776;2024-02-21T06:10:47;16.20;99.90
36990;DHT22;22898;52.102;5.776;2024-02-21T06:13:14;16.00;99.90
36990;DHT22;22898;52.102;5.776;2024-02-21T06:15:40;15.90;99.90
36990;DHT22;22898;52.102;5.776;2024-02-21T06:18:06;15.60;99.90
36990;DHT22;22898;52.102;5.776;2024-02-21T06:20:31;15.10;99.90
36990;DHT22;22898;52.102;5.776;2024-02-21T06:22:57;15.40;99.90
36990;DHT22;22898;52.102;5.776;2024-02-21T06:25:23;15.70;99.90
36990;DHT22;22898;52.102;5.776;2024-02-21T06:27:48;15.90;99.90
36990;DHT22;22898;52.102;5.776;2024-02-21T06:30:14;15.40;99.90
36990;DHT22;22898;52.102;5.776;2024-02-21T06:32:39;15.30;99.90
36990;DHT22;22898;52.102;5.776;2024-02-21T06:35:05;15.60;99.90
36990;DHT22;22898;52.102;5.776;2024-02-21T06:37:31;15.50;99.90
36990;DHT22;22898;52.102;5.776;2024-02-21T06:39:57;15.70;99.90
36990;DHT22;22898;52.102;5.776;2024-02-21T06:42:25;15.80;99.90
36990;DHT22;22898;52.102;5.776;2024-02-21T06:44:51;15.90;99.90
36990;DHT22;22898;52.102;5.776;2024-02-21T06:47:16;16.20;99.90
36990;DHT22;22898;52.102;5.776;2024-02-21T06:49:42;16.40;99.90
36990;DHT22;22898;52.102;5.776;2024-02-21T06:52:08;16.30;99.90
36990;DHT22;22898;52.102;5.776;2024-02-21T06:54:33;16.30;99.90
36990;DHT22;22898;52.102;5.776;2024-02-21T06:56:59;16.30;99.90
36990;DHT22;22898;52.102;5.776;2024-02-21T06:59:25;15.70;99.90
36990;DHT22;22898;52.102;5.776;2024-02-21T07:01:54;15.30;99.90
36990;DHT22;22898;52.102;5.776;2024-02-21T07:04:21;15.10;99.90
36990;DHT22;22898;52.102;5.776;2024-02-21T07:06:46;14.80;99.90
36990;DHT22;22898;52.102;5.776;2024-02-21T07:09:12;14.70;99.90
36990;DHT22;22898;52.102;5.776;2024-02-21T07:11:38;14.50;99.90
36990;DHT22;22898;52.102;5.776;2024-02-21T07:14:03;14.80;99.90
36990;DHT22;22898;52.102;5.776;2024-02-21T07:16:29;14.80;99.90
36990;DHT22;22898;52.102;5.776;2024-02-21T07:18:55;15.00;99.90
36990;DHT22;22898;52.102;5.776;2024-02-21T07:21:21;15.20;99.90
36990;DHT22;22898;52.102;5.776;2024-02-21T07:23:46;15.20;99.90
36990;DHT22;22898;52.102;5.776;2024-02-21T07:26:12;15.30;99.90
36990;DHT22;22898;52.102;5.776;2024-02-21T07:28:38;15.30;99.90
36990;DHT22;22898;52.102;5.776;2024-02-21T07:31:03;15.60;99.90
36990;DHT22;22898;52.102;5.776;2024-02-21T07:33:29;15.40;99.90
36990;DHT22;22898;52.102;5.776;2024-02-21T07:35:56;15.20;99.90
36990;DHT22;22898;52.102;5.776;2024-02-21T07:38:21;15.40;99.90
36990;DHT22;22898;52.102;5.776;2024-02-21T07:40:47;15.40;99.90
36990;DHT22;22898;52.102;5.776;2024-02-21T07:43:13;15.50;99.90
36990;DHT22;22898;52.102;5.776;2024-02-21T07:45:39;15.40;99.90
36990;DHT22;22898;52.102;5.776;2024-02-21T07:48:05;15.60;99.90
36990;DHT22;22898;52.102;5.776;2024-02-21T07:50:31;15.80;99.90
36990;DHT22;22898;52.102;5.776;2024-02-21T07:52:57;15.70;99.90
36990;DHT22;22898;52.102;5.776;2024-02-21T07:55:22;15.70;99.90
36990;DHT22;22898;52.102;5.776;2024-02-21T07:57:48;15.80;99.90
36990;DHT22;22898;52.102;5.776;2024-02-21T08:00:15;15.80;99.90
36990;DHT22;22898;52.102;5.776;2024-02-21T08:02:45;15.70;99.90
36990;DHT22;22898;52.102;5.776;2024-02-21T08:05:12;15.50;99.90
36990;DHT22;22898;52.102;5.776;2024-02-21T08:07:38;15.50;99.90
36990;DHT22;22898;52.102;5.776;2024-02-21T08:10:04;15.60;99.90
36990;DHT22;22898;52.102;5.776;2024-02-21T08:12:32;15.70;99.90
36990;DHT22;22898;52.102;5.776;2024-02-21T08:14:58;15.20;99.90
36990;DHT22;22898;52.102;5.776;2024-02-21T08:17:23;15.30;99.90
36990;DHT22;22898;52.102;5.776;2024-02-21T08:19:49;15.40;99.90
36990;DHT22;22898;52.102;5.776;2024-02-21T08:22:15;15.50;99.90
36990;DHT22;22898;52.102;5.776;2024-02-21T08:24:41;15.50;99.90
36990;DHT22;22898;52.102;5.776;2024-02-21T08:27:07;15.60;99.90
36990;DHT22;22898;52.102;5.776;2024-02-21T08:29:33;15.40;99.90
36990;DHT22;22898;52.102;5.776;2024-02-21T08:31:58;15.10;99.90
36990;DHT22;22898;52.102;5.776;2024-02-21T08:34:24;15.20;99.90
36990;DHT22;22898;52.102;5.776;2024-02-21T08:36:49;15.50;99.90
36990;DHT22;22898;52.102;5.776;2024-02-21T08:39:15;15.50;99.90
36990;DHT22;22898;52.102;5.776;2024-02-21T08:41:43;15.80;99.90
36990;DHT22;22898;52.102;5.776;2024-02-21T08:44:09;15.90;99.90
36990;DHT22;22898;52.102;5.776;2024-02-21T08:46:35;16.00;99.90
36990;DHT22;22898;52.102;5.776;2024-02-21T08:49:03;16.30;99.90
36990;DHT22;22898;52.102;5.776;2024-02-21T08:51:29;16.40;99.90
36990;DHT22;22898;52.102;5.776;2024-02-21T08:53:54;16.40;99.90
36990;DHT22;22898;52.102;5.776;2024-02-21T08:56:20;16.60;99.90
36990;DHT22;22898;52.102;5.776;2024-02-21T08:58:46;16.50;99.90
36990;DHT22;22898;52.102;5.776;2024-02-21T09:01:12;16.40;99.90
36990;DHT22;22898;52.102;5.776;2024-02-21T09:03:38;16.00;99.90
36990;DHT22;22898;52.102;5.776;2024-02-21T09:06:08;16.00;99.90
36990;DHT22;22898;52.102;5.776;2024-02-21T09:08:34;16.00;99.90
36990;DHT22;22898;52.102;5.776;2024-02-21T09:11:00;16.10;99.90
36990;DHT22;22898;52.102;5.776;2024-02-21T09:13:29;15.90;99.90
36990;DHT22;22898;52.102;5.776;2024-02-21T09:15:55;15.90;99.90
36990;DHT22;22898;52.102;5.776;2024-02-21T09:18:21;16.00;99.90
36990;DHT22;22898;52.102;5.776;2024-02-21T09:20:47;16.20;99.90
36990;DHT22;22898;52.102;5.776;2024-02-21T09:23:13;15.80;99.90
36990;DHT22;22898;52.102;5.776;2024-02-21T09:25:38;15.70;99.90
36990;DHT22;22898;52.102;5.776;2024-02-21T09:28:05;16.00;99.90
36990;DHT22;22898;52.102;5.776;2024-02-21T09:30:31;16.30;99.90
36990;DHT22;22898;52.102;5.776;2024-02-21T09:32:57;16.80;99.90
36990;DHT22;22898;52.102;5.776;2024-02-21T09:35:25;17.10;99.90
36990;DHT22;22898;52.102;5.776;2024-02-21T09:37:52;16.90;99.90
36990;DHT22;22898;52.102;5.776;2024-02-21T09:40:18;17.10;99.90
36990;DHT22;22898;52.102;5.776;2024-02-21T09:42:44;17.20;99.90
36990;DHT22;22898;52.102;5.776;2024-02-21T09:45:23;17.10;99.90
36990;DHT22;22898;52.102;5.776;2024-02-21T09:50:27;16.50;99.90
36990;DHT22;22898;52.102;5.776;2024-02-21T09:52:55;16.70;99.90
36990;DHT22;22898;52.102;5.776;2024-02-21T09:55:21;16.60;99.90
36990;DHT22;22898;52.102;5.776;2024-02-21T09:57:50;16.70;99.90
36990;DHT22;22898;52.102;5.776;2024-02-21T10:00:16;16.90;99.90
36990;DHT22;22898;52.102;5.776;2024-02-21T10:02:50;17.10;99.90
36990;DHT22;22898;52.102;5.776;2024-02-21T10:05:16;16.90;99.90
36990;DHT22;22898;52.102;5.776;2024-02-21T10:07:43;16.50;99.90
36990;DHT22;22898;52.102;5.776;2024-02-21T10:10:09;16.60;99.90
36990;DHT22;22898;52.102;5.776;2024-02-21T10:12:35;17.00;99.90
36990;DHT22;22898;52.102;5.776;2024-02-21T10:15:05;16.70;99.90
36990;DHT22;22898;52.102;5.776;2024-02-21T10:17:34;16.60;99.90
36990;DHT22;22898;52.102;5.776;2024-02-21T10:20:09;16.60;99.90
36990;DHT22;22898;52.102;5.776;2024-02-21T10:22:37;16.70;99.90
36990;DHT22;22898;52.102;5.776;2024-02-21T10:25:11;16.90;99.90
36990;DHT22;22898;52.102;5.776;2024-02-21T10:27:38;17.30;99.90
36990;DHT22;22898;52.102;5.776;2024-02-21T10:30:14;17.50;99.90
36990;DHT22;22898;52.102;5.776;2024-02-21T10:32:50;17.10;99.90
36990;DHT22;22898;52.102;5.776;2024-02-21T10:35:26;17.40;99.90
36990;DHT22;22898;52.102;5.776;2024-02-21T10:37:52;17.30;99.90
36990;DHT22;22898;52.102;5.776;2024-02-21T10:40:24;17.00;99.90
36990;DHT22;22898;52.102;5.776;2024-02-21T10:42:59;17.50;99.90
36990;DHT22;22898;52.102;5.776;2024-02-21T10:45:34;17.30;99.90
36990;DHT22;22898;52.102;5.776;2024-02-21T10:48:14;17.40;99.90
36990;DHT22;22898;52.102;5.776;2024-02-21T10:58:46;16.00;99.90
36990;DHT22;22898;52.102;5.776;2024-02-21T11:01:12;16.00;99.90
36990;DHT22;22898;52.102;5.776;2024-02-21T11:03:41;16.10;99.90
36990;DHT22;22898;52.102;5.776;2024-02-21T11:06:10;16.20;99.90
36990;DHT22;22898;52.102;5.776;2024-02-21T11:08:37;15.90;99.90
36990;DHT22;22898;52.102;5.776;2024-02-21T11:11:04;16.20;99.90
36990;DHT22;22898;52.102;5.776;2024-02-21T11:13:37;16.70;99.90
36990;DHT22;22898;52.102;5.776;2024-02-21T11:16:09;16.70;99.90
36990;DHT22;22898;52.102;5.776;2024-02-21T11:18:37;16.70;99.90
36990;DHT22;22898;52.102;5.776;2024-02-21T11:21:03;17.00;99.90
36990;DHT22;22898;52.102;5.776;2024-02-21T11:23:30;17.50;99.90
36990;DHT22;22898;52.102;5.776;2024-02-21T11:26:09;17.10;99.90
36990;DHT22;22898;52.102;5.776;2024-02-21T11:28:36;17.10;99.90
36990;DHT22;22898;52.102;5.776;2024-02-21T11:31:11;17.30;99.90
36990;DHT22;22898;52.102;5.776;2024-02-21T11:33:41;17.30;99.90
36990;DHT22;22898;52.102;5.776;2024-02-21T11:36:10;17.50;99.90
36990;DHT22;22898;52.102;5.776;2024-02-21T11:38:36;17.10;99.90
36990;DHT22;22898;52.102;5.776;2024-02-21T11:41:02;16.70;99.90
36990;DHT22;22898;52.102;5.776;2024-02-21T11:43:28;16.70;99.90
36990;DHT22;22898;52.102;5.776;2024-02-21T11:46:03;16.80;99.90
36990;DHT22;22898;52.102;5.776;2024-02-21T11:48:31;16.80;99.90
36990;DHT22;22898;52.102;5.776;2024-02-21T11:50:57;16.80;99.90
36990;DHT22;22898;52.102;5.776;2024-02-21T11:53:23;16.60;99.90
36990;DHT22;22898;52.102;5.776;2024-02-21T11:55:49;16.20;99.90
36990;DHT22;22898;52.102;5.776;2024-02-21T11:58:16;16.50;99.90
36990;DHT22;22898;52.102;5.776;2024-02-21T12:00:41;16.70;99.90
36990;DHT22;22898;52.102;5.776;2024-02-21T12:03:07;16.80;99.90
36990;DHT22;22898;52.102;5.776;2024-02-21T12:05:33;16.70;99.90
36990;DHT22;22898;52.102;5.776;2024-02-21T12:08:00;16.90;99.90
36990;DHT22;22898;52.102;5.776;2024-02-21T12:10:26;16.80;99.90
36990;DHT22;22898;52.102;5.776;2024-02-21T12:12:53;16.70;99.90
36990;DHT22;22898;52.102;5.776;2024-02-21T12:15:20;16.80;99.90
36990;DHT22;22898;52.102;5.776;2024-02-21T12:17:46;16.80;99.90
36990;DHT22;22898;52.102;5.776;2024-02-21T12:20:11;17.00;99.90
36990;DHT22;22898;52.102;5.776;2024-02-21T12:22:43;16.60;99.90
36990;DHT22;22898;52.102;5.776;2024-02-21T12:25:19;17.10;99.90
36990;DHT22;22898;52.102;5.776;2024-02-21T12:27:48;17.30;99.90
36990;DHT22;22898;52.102;5.776;2024-02-21T12:30:15;17.40;99.90
36990;DHT22;22898;52.102;5.776;2024-02-21T12:32:41;17.50;99.90
36990;DHT22;22898;52.102;5.776;2024-02-21T12:35:07;17.60;99.90
36990;DHT22;22898;52.102;5.776;2024-02-21T12:37:32;17.90;99.90
36990;DHT22;22898;52.102;5.776;2024-02-21T12:39:59;18.10;99.90
36990;DHT22;22898;52.102;5.776;2024-02-21T12:42:25;18.40;99.90
36990;DHT22;22898;52.102;5.776;2024-02-21T12:44:54;18.10;99.90
36990;DHT22;22898;52.102;5.776;2024-02-21T12:47:20;18.10;99.90
36990;DHT22;22898;52.102;5.776;2024-02-21T12:49:49;17.60;99.90
36990;DHT22;22898;52.102;5.776;2024-02-21T12:52:14;17.70;99.90
36990;DHT22;22898;52.102;5.776;2024-02-21T12:54:40;17.70;99.90
36990;DHT22;22898;52.102;5.776;2024-02-21T12:57:06;18.00;99.90
36990;DHT22;22898;52.102;5.776;2024-02-21T12:59:31;18.10;99.90
36990;DHT22;22898;52.102;5.776;2024-02-21T13:01:57;18.20;99.90
36990;DHT22;22898;52.102;5.776;2024-02-21T13:04:23;18.30;99.90
36990;DHT22;22898;52.102;5.776;2024-02-21T13:06:49;18.60;99.90
36990;DHT22;22898;52.102;5.776;2024-02-21T13:09:15;18.10;99.90
36990;DHT22;22898;52.102;5.776;2024-02-21T13:11:41;17.90;99.90
36990;DHT22;22898;52.102;5.776;2024-02-21T13:14:07;17.80;99.90
36990;DHT22;22898;52.102;5.776;2024-02-21T13:16:33;17.90;99.90
36990;DHT22;22898;52.102;5.776;2024-02-21T13:19:05;17.60;99.90
36990;DHT22;22898;52.102;5.776;2024-02-21T13:21:31;17.70;99.90
36990;DHT22;22898;52.102;5.776;2024-02-21T13:23:56;17.70;99.90
36990;DHT22;22898;52.102;5.776;2024-02-21T13:26:22;17.60;99.90
36990;DHT22;22898;52.102;5.776;2024-02-21T13:28:48;17.50;99.90
36990;DHT22;22898;52.102;5.776;2024-02-21T13:31:14;17.50;99.90
36990;DHT22;22898;52.102;5.776;2024-02-21T13:33:42;17.70;99.90
36990;DHT22;22898;52.102;5.776;2024-02-21T13:36:09;18.00;99.90
36990;DHT22;22898;52.102;5.776;2024-02-21T13:38:35;17.80;99.90
36990;DHT22;22898;52.102;5.776;2024-02-21T13:41:01;17.90;99.90
36990;DHT22;22898;52.102;5.776;2024-02-21T13:43:26;17.70;99.90
36990;DHT22;22898;52.102;5.776;2024-02-21T13:46:00;17.70;99.90
36990;DHT22;22898;52.102;5.776;2024-02-21T13:48:26;17.70;99.90
36990;DHT22;22898;52.102;5.776;2024-02-21T13:50:52;17.70;99.90
36990;DHT22;22898;52.102;5.776;2024-02-21T13:53:18;17.70;99.90
36990;DHT22;22898;52.102;5.776;2024-02-21T13:55:44;17.90;99.90
36990;DHT22;22898;52.102;5.776;2024-02-21T13:58:11;17.60;99.90
36990;DHT22;22898;52.102;5.776;2024-02-21T14:00:36;17.50;99.90
36990;DHT22;22898;52.102;5.776;2024-02-21T14:03:02;17.10;99.90
36990;DHT22;22898;52.102;5.776;2024-02-21T14:05:28;16.60;99.90
36990;DHT22;22898;52.102;5.776;2024-02-21T14:07:54;16.60;99.90
36990;DHT22;22898;52.102;5.776;2024-02-21T14:10:20;16.70;99.90
36990;DHT22;22898;52.102;5.776;2024-02-21T14:12:46;16.10;99.90
36990;DHT22;22898;52.102;5.776;2024-02-21T14:15:14;16.00;99.90
36990;DHT22;22898;52.102;5.776;2024-02-21T14:17:39;16.30;99.90
36990;DHT22;22898;52.102;5.776;2024-02-21T14:20:07;16.50;99.90
36990;DHT22;22898;52.102;5.776;2024-02-21T14:22:32;16.80;99.90
36990;DHT22;22898;52.102;5.776;2024-02-21T14:24:59;16.80;99.90
36990;DHT22;22898;52.102;5.776;2024-02-21T14:27:25;17.10;99.90
36990;DHT22;22898;52.102;5.776;2024-02-21T14:29:51;17.00;99.90
36990;DHT22;22898;52.102;5.776;2024-02-21T14:32:17;17.10;99.90
36990;DHT22;22898;52.102;5.776;2024-02-21T14:34:42;17.30;99.90
36990;DHT22;22898;52.102;5.776;2024-02-21T14:37:08;17.60;99.90
36990;DHT22;22898;52.102;5.776;2024-02-21T14:39:34;17.40;99.90
36990;DHT22;22898;52.102;5.776;2024-02-21T14:42:00;17.60;99.90
36990;DHT22;22898;52.102;5.776;2024-02-21T14:44:26;17.20;99.90
36990;DHT22;22898;52.102;5.776;2024-02-21T14:46:52;17.00;99.90
36990;DHT22;22898;52.102;5.776;2024-02-21T14:49:18;16.90;99.90
36990;DHT22;22898;52.102;5.776;2024-02-21T14:51:44;16.80;99.90
36990;DHT22;22898;52.102;5.776;2024-02-21T14:54:10;16.70;99.90
36990;DHT22;22898;52.102;5.776;2024-02-21T14:56:36;16.80;99.90
36990;DHT22;22898;52.102;5.776;2024-02-21T14:59:02;16.90;99.90
36990;DHT22;22898;52.102;5.776;2024-02-21T15:01:29;16.90;99.90
36990;DHT22;22898;52.102;5.776;2024-02-21T15:03:55;16.70;99.90
36990;DHT22;22898;52.102;5.776;2024-02-21T15:06:20;16.70;99.90
36990;DHT22;22898;52.102;5.776;2024-02-21T15:08:46;16.70;99.90
36990;DHT22;22898;52.102;5.776;2024-02-21T15:11:14;16.90;99.90
36990;DHT22;22898;52.102;5.776;2024-02-21T15:13:39;17.20;99.90
36990;DHT22;22898;52.102;5.776;2024-02-21T15:16:05;17.30;99.90
36990;DHT22;22898;52.102;5.776;2024-02-21T15:18:31;17.40;99.90
36990;DHT22;22898;52.102;5.776;2024-02-21T15:20:59;17.30;99.90
36990;DHT22;22898;52.102;5.776;2024-02-21T15:23:25;17.20;99.90
36990;DHT22;22898;52.102;5.776;2024-02-21T15:25:51;17.40;99.90
36990;DHT22;22898;52.102;5.776;2024-02-21T15:28:16;17.50;99.90
36990;DHT22;22898;52.102;5.776;2024-02-21T15:30:42;17.30;99.90
36990;DHT22;22898;52.102;5.776;2024-02-21T15:33:08;17.00;99.90
36990;DHT22;22898;52.102;5.776;2024-02-21T15:35:34;16.50;99.90
36990;DHT22;22898;52.102;5.776;2024-02-21T15:38:01;16.30;99.90